sensor_id;sensor_type;location;lat;lon;timestamp;temperature;humidity
56538;DHT22;42435;53.292;6.000;2023-05-07T00:01:44;14.10;83.00
56538;DHT22;42435;53.292;6.000;2023-05-07T00:04:10;14.00;83.10
56538;DHT22;42435;53.292;6.000;2023-05-07T00:06:37;14.10;83.20
56538;DHT22;42435;53.292;6.000;2023-05-07T00:09:03;14.00;83.30
56538;DHT22;42435;53.292;6.000;2023-05-07T00:11:29;14.00;83.30
56538;DHT22;42435;53.292;6.000;2023-05-07T00:13:55;14.00;83.40
56538;DHT22;42435;53.292;6.000;2023-05-07T00:16:21;14.00;83.40
56538;DHT22;42435;53.292;6.000;2023-05-07T00:18:48;14.00;83.40
56538;DHT22;42435;53.292;6.000;2023-05-07T00:21:13;14.00;83.50
56538;DHT22;42435;53.292;6.000;2023-05-07T00:23:39;14.00;83.50
56538;DHT22;42435;53.292;6.000;2023-05-07T00:26:05;13.90;83.60
56538;DHT22;42435;53.292;6.000;2023-05-07T00:28:33;13.90;83.60
56538;DHT22;42435;53.292;6.000;2023-05-07T00:31:01;13.90;83.60
56538;DHT22;42435;53.292;6.000;2023-05-07T00:33:30;13.90;83.60
56538;DHT22;42435;53.292;6.000;2023-05-07T00:35:57;13.90;83.50
56538;DHT22;42435;53.292;6.000;2023-05-07T00:38:26;13.90;83.60
56538;DHT22;42435;53.292;6.000;2023-05-07T00:40:51;13.80;83.60
56538;DHT22;42435;53.292;6.000;2023-05-07T00:43:17;13.80;83.70
56538;DHT22;42435;53.292;6.000;2023-05-07T00:45:43;13.80;83.60
56538;DHT22;42435;53.292;6.000;2023-05-07T00:48:11;13.80;83.60
56538;DHT22;42435;53.292;6.000;2023-05-07T00:50:37;13.80;83.70
56538;DHT22;42435;53.292;6.000;2023-05-07T00:53:04;13.80;83.80
56538;DHT22;42435;53.292;6.000;2023-05-07T00:55:30;13.70;83.80
56538;DHT22;42435;53.292;6.000;2023-05-07T00:57:55;13.80;83.80
56538;DHT22;42435;53.292;6.000;2023-05-07T01:00:21;13.70;83.80
56538;DHT22;42435;53.292;6.000;2023-05-07T01:02:47;13.70;83.80
56538;DHT22;42435;53.292;6.000;2023-05-07T01:05:14;13.70;83.80
56538;DHT22;42435;53.292;6.000;2023-05-07T01:07:42;13.70;83.90
56538;DHT22;42435;53.292;6.000;2023-05-07T01:10:08;13.60;83.90
56538;DHT22;42435;53.292;6.000;2023-05-07T01:12:36;13.60;84.10
56538;DHT22;42435;53.292;6.000;2023-05-07T01:15:03;13.60;84.10
56538;DHT22;42435;53.292;6.000;2023-05-07T01:17:30;13.60;84.10
56538;DHT22;42435;53.292;6.000;2023-05-07T01:19:58;13.50;84.10
56538;DHT22;42435;53.292;6.000;2023-05-07T01:22:31;13.50;84.20
56538;DHT22;42435;53.292;6.000;2023-05-07T01:24:59;13.50;84.30
56538;DHT22;42435;53.292;6.000;2023-05-07T01:27:27;13.40;84.30
56538;DHT22;42435;53.292;6.000;2023-05-07T01:29:52;13.40;84.40
56538;DHT22;42435;53.292;6.000;2023-05-07T01:32:28;13.40;84.50
56538;DHT22;42435;53.292;6.000;2023-05-07T01:34:58;13.40;84.60
56538;DHT22;42435;53.292;6.000;2023-05-07T01:37:25;13.40;84.50
56538;DHT22;42435;53.292;6.000;2023-05-07T01:39:53;13.40;84.50
56538;DHT22;42435;53.292;6.000;2023-05-07T01:42:19;13.40;84.50
56538;DHT22;42435;53.292;6.000;2023-05-07T01:44:46;13.40;84.50
56538;DHT22;42435;53.292;6.000;2023-05-07T01:47:12;13.40;84.50
56538;DHT22;42435;53.292;6.000;2023-05-07T01:49:39;13.30;84.60
56538;DHT22;42435;53.292;6.000;2023-05-07T01:52:05;13.30;84.60
56538;DHT22;42435;53.292;6.000;2023-05-07T01:54:30;13.30;84.50
56538;DHT22;42435;53.292;6.000;2023-05-07T01:56:56;13.30;84.60
56538;DHT22;42435;53.292;6.000;2023-05-07T01:59:22;13.30;84.60
56538;DHT22;42435;53.292;6.000;2023-05-07T02:01:48;13.20;84.70
56538;DHT22;42435;53.292;6.000;2023-05-07T02:04:15;13.20;84.70
56538;DHT22;42435;53.292;6.000;2023-05-07T02:06:41;13.20;84.80
56538;DHT22;42435;53.292;6.000;2023-05-07T02:09:06;13.10;84.80
56538;DHT22;42435;53.292;6.000;2023-05-07T02:11:34;13.10;84.80
56538;DHT22;42435;53.292;6.000;2023-05-07T02:14:00;13.10;84.80
56538;DHT22;42435;53.292;6.000;2023-05-07T02:16:25;13.10;84.80
56538;DHT22;42435;53.292;6.000;2023-05-07T02:18:51;13.00;84.80
56538;DHT22;42435;53.292;6.000;2023-05-07T02:21:17;13.00;84.90
56538;DHT22;42435;53.292;6.000;2023-05-07T02:23:42;12.90;84.90
56538;DHT22;42435;53.292;6.000;2023-05-07T02:26:10;12.90;84.80
56538;DHT22;42435;53.292;6.000;2023-05-07T02:28:36;12.90;84.80
56538;DHT22;42435;53.292;6.000;2023-05-07T02:31:05;12.90;84.90
56538;DHT22;42435;53.292;6.000;2023-05-07T02:33:31;12.90;85.00
56538;DHT22;42435;53.292;6.000;2023-05-07T02:35:56;12.90;84.90
56538;DHT22;42435;53.292;6.000;2023-05-07T02:38:22;12.90;84.90
56538;DHT22;42435;53.292;6.000;2023-05-07T02:40:48;12.90;85.00
56538;DHT22;42435;53.292;6.000;2023-05-07T02:43:15;12.90;85.00
56538;DHT22;42435;53.292;6.000;2023-05-07T02:45:41;12.90;85.00
56538;DHT22;42435;53.292;6.000;2023-05-07T02:48:09;12.80;85.00
56538;DHT22;42435;53.292;6.000;2023-05-07T02:50:35;12.80;85.00
56538;DHT22;42435;53.292;6.000;2023-05-07T02:53:02;12.80;84.90
56538;DHT22;42435;53.292;6.000;2023-05-07T02:55:30;12.80;85.00
56538;DHT22;42435;53.292;6.000;2023-05-07T02:57:56;12.80;85.10
56538;DHT22;42435;53.292;6.000;2023-05-07T03:00:22;12.80;85.10
56538;DHT22;42435;53.292;6.000;2023-05-07T03:02:47;12.80;85.00
56538;DHT22;42435;53.292;6.000;2023-05-07T03:05:13;12.80;85.00
56538;DHT22;42435;53.292;6.000;2023-05-07T03:07:39;12.80;85.00
56538;DHT22;42435;53.292;6.000;2023-05-07T03:10:06;12.80;84.90
56538;DHT22;42435;53.292;6.000;2023-05-07T03:12:32;12.80;84.90
56538;DHT22;42435;53.292;6.000;2023-05-07T03:14:57;12.80;84.90
56538;DHT22;42435;53.292;6.000;2023-05-07T03:17:23;12.70;84.90
56538;DHT22;42435;53.292;6.000;2023-05-07T03:19:49;12.70;84.90
56538;DHT22;42435;53.292;6.000;2023-05-07T03:22:14;12.70;84.90
56538;DHT22;42435;53.292;6.000;2023-05-07T03:24:40;12.70;84.90
56538;DHT22;42435;53.292;6.000;2023-05-07T03:27:05;12.70;84.90
56538;DHT22;42435;53.292;6.000;2023-05-07T03:29:32;12.70;84.80
56538;DHT22;42435;53.292;6.000;2023-05-07T03:31:58;12.70;84.80
56538;DHT22;42435;53.292;6.000;2023-05-07T03:34:23;12.70;84.70
56538;DHT22;42435;53.292;6.000;2023-05-07T03:36:49;12.60;84.70
56538;DHT22;42435;53.292;6.000;2023-05-07T03:39:15;12.60;84.80
56538;DHT22;42435;53.292;6.000;2023-05-07T03:41:44;12.60;84.90
56538;DHT22;42435;53.292;6.000;2023-05-07T03:44:09;12.60;84.80
56538;DHT22;42435;53.292;6.000;2023-05-07T03:46:35;12.60;84.90
56538;DHT22;42435;53.292;6.000;2023-05-07T03:49:00;12.60;84.80
56538;DHT22;42435;53.292;6.000;2023-05-07T03:51:26;12.50;84.80
56538;DHT22;42435;53.292;6.000;2023-05-07T03:53:52;12.50;84.90
56538;DHT22;42435;53.292;6.000;2023-05-07T03:56:22;12.50;84.90
56538;DHT22;42435;53.292;6.000;2023-05-07T03:58:48;12.50;84.90
56538;DHT22;42435;53.292;6.000;2023-05-07T04:01:14;12.50;85.00
56538;DHT22;42435;53.292;6.000;2023-05-07T04:03:40;12.50;85.00
56538;DHT22;42435;53.292;6.000;2023-05-07T04:06:05;12.50;85.00
56538;DHT22;42435;53.292;6.000;2023-05-07T04:08:31;12.40;85.00
56538;DHT22;42435;53.292;6.000;2023-05-07T04:10:58;12.40;85.10
56538;DHT22;42435;53.292;6.000;2023-05-07T04:13:24;12.40;85.10
56538;DHT22;42435;53.292;6.000;2023-05-07T04:15:54;12.40;85.10
56538;DHT22;42435;53.292;6.000;2023-05-07T04:18:20;12.40;85.20
56538;DHT22;42435;53.292;6.000;2023-05-07T04:20:47;12.40;85.20
56538;DHT22;42435;53.292;6.000;2023-05-07T04:23:13;12.40;85.20
56538;DHT22;42435;53.292;6.000;2023-05-07T04:25:38;12.40;85.20
56538;DHT22;42435;53.292;6.000;2023-05-07T04:28:04;12.40;85.20
56538;DHT22;42435;53.292;6.000;2023-05-07T04:30:31;12.40;85.30
56538;DHT22;42435;53.292;6.000;2023-05-07T04:32:56;12.40;85.20
56538;DHT22;42435;53.292;6.000;2023-05-07T04:35:22;12.40;85.20
56538;DHT22;42435;53.292;6.000;2023-05-07T04:37:48;12.40;85.20
56538;DHT22;42435;53.292;6.000;2023-05-07T04:40:14;12.40;85.30
56538;DHT22;42435;53.292;6.000;2023-05-07T04:42:39;12.40;85.30
56538;DHT22;42435;53.292;6.000;2023-05-07T04:45:06;12.40;85.20
56538;DHT22;42435;53.292;6.000;2023-05-07T04:47:31;12.40;85.10
56538;DHT22;42435;53.292;6.000;2023-05-07T04:50:00;12.40;85.10
56538;DHT22;42435;53.292;6.000;2023-05-07T04:52:25;12.30;85.20
56538;DHT22;42435;53.292;6.000;2023-05-07T04:54:51;12.40;85.30
56538;DHT22;42435;53.292;6.000;2023-05-07T04:57:17;12.30;85.30
56538;DHT22;42435;53.292;6.000;2023-05-07T04:59:43;12.30;85.30
56538;DHT22;42435;53.292;6.000;2023-05-07T05:02:10;12.30;85.30
56538;DHT22;42435;53.292;6.000;2023-05-07T05:04:36;12.30;85.40
56538;DHT22;42435;53.292;6.000;2023-05-07T05:07:02;12.40;85.40
56538;DHT22;42435;53.292;6.000;2023-05-07T05:09:29;12.30;85.30
56538;DHT22;42435;53.292;6.000;2023-05-07T05:11:55;12.30;85.30
56538;DHT22;42435;53.292;6.000;2023-05-07T05:14:21;12.30;85.30
56538;DHT22;42435;53.292;6.000;2023-05-07T05:16:46;12.40;85.40
56538;DHT22;42435;53.292;6.000;2023-05-07T05:19:12;12.40;85.50
56538;DHT22;42435;53.292;6.000;2023-05-07T05:21:37;12.40;85.40
56538;DHT22;42435;53.292;6.000;2023-05-07T05:24:06;12.40;85.40
56538;DHT22;42435;53.292;6.000;2023-05-07T05:26:32;12.40;85.40
56538;DHT22;42435;53.292;6.000;2023-05-07T05:28:57;12.50;85.40
56538;DHT22;42435;53.292;6.000;2023-05-07T05:31:26;12.50;85.30
56538;DHT22;42435;53.292;6.000;2023-05-07T05:33:53;12.50;85.30
56538;DHT22;42435;53.292;6.000;2023-05-07T05:36:20;12.50;85.30
56538;DHT22;42435;53.292;6.000;2023-05-07T05:38:45;12.60;85.30
56538;DHT22;42435;53.292;6.000;2023-05-07T05:41:12;12.50;85.10
56538;DHT22;42435;53.292;6.000;2023-05-07T05:43:38;12.60;85.00
56538;DHT22;42435;53.292;6.000;2023-05-07T05:46:04;12.60;84.80
56538;DHT22;42435;53.292;6.000;2023-05-07T05:48:30;12.60;84.70
56538;DHT22;42435;53.292;6.000;2023-05-07T05:50:55;12.60;84.70
56538;DHT22;42435;53.292;6.000;2023-05-07T05:53:21;12.60;84.80
56538;DHT22;42435;53.292;6.000;2023-05-07T05:55:50;12.60;84.80
56538;DHT22;42435;53.292;6.000;2023-05-07T05:58:16;12.70;84.70
56538;DHT22;42435;53.292;6.000;2023-05-07T06:00:45;12.70;84.60
56538;DHT22;42435;53.292;6.000;2023-05-07T06:03:11;12.80;84.40
56538;DHT22;42435;53.292;6.000;2023-05-07T06:05:36;12.80;84.20
56538;DHT22;42435;53.292;6.000;2023-05-07T06:08:03;12.80;84.10
56538;DHT22;42435;53.292;6.000;2023-05-07T06:10:29;12.70;84.00
56538;DHT22;42435;53.292;6.000;2023-05-07T06:12:55;12.70;83.90
56538;DHT22;42435;53.292;6.000;2023-05-07T06:15:21;12.70;84.00
56538;DHT22;42435;53.292;6.000;2023-05-07T06:17:48;12.70;84.10
56538;DHT22;42435;53.292;6.000;2023-05-07T06:20:16;12.70;84.00
56538;DHT22;42435;53.292;6.000;2023-05-07T06:22:41;12.60;84.10
56538;DHT22;42435;53.292;6.000;2023-05-07T06:25:07;12.60;84.10
56538;DHT22;42435;53.292;6.000;2023-05-07T06:27:34;12.60;84.00
56538;DHT22;42435;53.292;6.000;2023-05-07T06:30:00;12.70;84.00
56538;DHT22;42435;53.292;6.000;2023-05-07T06:32:28;12.60;83.90
56538;DHT22;42435;53.292;6.000;2023-05-07T06:34:54;12.70;84.00
56538;DHT22;42435;53.292;6.000;2023-05-07T06:37:19;12.70;84.00
56538;DHT22;42435;53.292;6.000;2023-05-07T06:39:45;12.70;83.90
56538;DHT22;42435;53.292;6.000;2023-05-07T06:42:11;12.70;84.00
56538;DHT22;42435;53.292;6.000;2023-05-07T06:44:36;12.60;83.90
56538;DHT22;42435;53.292;6.000;2023-05-07T06:47:05;12.60;84.00
56538;DHT22;42435;53.292;6.000;2023-05-07T06:49:31;12.70;84.10
56538;DHT22;42435;53.292;6.000;2023-05-07T06:51:57;12.70;84.00
56538;DHT22;42435;53.292;6.000;2023-05-07T06:54:23;12.70;83.90
56538;DHT22;42435;53.292;6.000;2023-05-07T06:56:48;12.70;83.80
56538;DHT22;42435;53.292;6.000;2023-05-07T06:59:16;12.70;83.80
56538;DHT22;42435;53.292;6.000;2023-05-07T07:01:41;12.70;83.90
56538;DHT22;42435;53.292;6.000;2023-05-07T07:04:07;12.70;84.00
56538;DHT22;42435;53.292;6.000;2023-05-07T07:06:33;12.80;84.10
56538;DHT22;42435;53.292;6.000;2023-05-07T07:08:59;12.80;84.10
56538;DHT22;42435;53.292;6.000;2023-05-07T07:11:25;12.90;84.00
56538;DHT22;42435;53.292;6.000;2023-05-07T07:13:51;12.90;84.00
56538;DHT22;42435;53.292;6.000;2023-05-07T07:16:16;12.90;83.80
56538;DHT22;42435;53.292;6.000;2023-05-07T07:18:42;12.90;83.70
56538;DHT22;42435;53.292;6.000;2023-05-07T07:21:09;13.00;83.60
56538;DHT22;42435;53.292;6.000;2023-05-07T07:23:35;13.00;83.40
56538;DHT22;42435;53.292;6.000;2023-05-07T07:26:01;12.90;83.30
56538;DHT22;42435;53.292;6.000;2023-05-07T07:28:26;12.90;83.30
56538;DHT22;42435;53.292;6.000;2023-05-07T07:30:52;13.00;83.30
56538;DHT22;42435;53.292;6.000;2023-05-07T07:33:17;13.00;83.20
56538;DHT22;42435;53.292;6.000;2023-05-07T07:35:43;13.00;83.20
56538;DHT22;42435;53.292;6.000;2023-05-07T07:38:12;13.10;83.20
56538;DHT22;42435;53.292;6.000;2023-05-07T07:40:37;13.00;83.10
56538;DHT22;42435;53.292;6.000;2023-05-07T07:43:03;13.00;83.10
56538;DHT22;42435;53.292;6.000;2023-05-07T07:45:28;13.00;83.10
56538;DHT22;42435;53.292;6.000;2023-05-07T07:47:54;13.10;83.10
56538;DHT22;42435;53.292;6.000;2023-05-07T07:50:21;13.10;83.00
56538;DHT22;42435;53.292;6.000;2023-05-07T07:52:47;13.00;83.00
56538;DHT22;42435;53.292;6.000;2023-05-07T07:55:20;13.10;83.10
56538;DHT22;42435;53.292;6.000;2023-05-07T07:57:48;13.20;83.00
56538;DHT22;42435;53.292;6.000;2023-05-07T08:00:15;13.30;83.00
56538;DHT22;42435;53.292;6.000;2023-05-07T08:02:40;13.40;82.90
56538;DHT22;42435;53.292;6.000;2023-05-07T08:05:07;13.40;82.80
56538;DHT22;42435;53.292;6.000;2023-05-07T08:07:36;13.40;82.60
56538;DHT22;42435;53.292;6.000;2023-05-07T08:10:01;13.50;82.50
56538;DHT22;42435;53.292;6.000;2023-05-07T08:12:27;13.50;82.40
56538;DHT22;42435;53.292;6.000;2023-05-07T08:14:53;13.60;82.40
56538;DHT22;42435;53.292;6.000;2023-05-07T08:17:18;13.70;82.20
56538;DHT22;42435;53.292;6.000;2023-05-07T08:19:44;13.70;82.00
56538;DHT22;42435;53.292;6.000;2023-05-07T08:22:10;13.80;81.80
56538;DHT22;42435;53.292;6.000;2023-05-07T08:24:36;13.80;81.70
56538;DHT22;42435;53.292;6.000;2023-05-07T08:27:02;13.90;81.50
56538;DHT22;42435;53.292;6.000;2023-05-07T08:29:29;13.90;81.50
56538;DHT22;42435;53.292;6.000;2023-05-07T08:31:55;13.90;81.60
56538;DHT22;42435;53.292;6.000;2023-05-07T08:34:21;14.00;81.40
56538;DHT22;42435;53.292;6.000;2023-05-07T08:36:47;14.00;81.20
56538;DHT22;42435;53.292;6.000;2023-05-07T08:39:17;14.10;81.20
56538;DHT22;42435;53.292;6.000;2023-05-07T08:41:44;14.20;81.10
56538;DHT22;42435;53.292;6.000;2023-05-07T08:44:12;14.30;80.90
56538;DHT22;42435;53.292;6.000;2023-05-07T08:46:39;14.30;80.60
56538;DHT22;42435;53.292;6.000;2023-05-07T08:49:05;14.40;80.50
56538;DHT22;42435;53.292;6.000;2023-05-07T08:51:31;14.50;80.50
56538;DHT22;42435;53.292;6.000;2023-05-07T08:53:57;14.60;80.50
56538;DHT22;42435;53.292;6.000;2023-05-07T08:56:24;14.70;80.10
56538;DHT22;42435;53.292;6.000;2023-05-07T08:58:50;14.80;79.80
56538;DHT22;42435;53.292;6.000;2023-05-07T09:01:19;14.90;79.50
56538;DHT22;42435;53.292;6.000;2023-05-07T09:03:46;15.00;79.20
56538;DHT22;42435;53.292;6.000;2023-05-07T09:06:13;15.10;79.00
56538;DHT22;42435;53.292;6.000;2023-05-07T09:08:40;15.20;78.70
56538;DHT22;42435;53.292;6.000;2023-05-07T09:11:06;15.20;78.20
56538;DHT22;42435;53.292;6.000;2023-05-07T09:13:32;15.40;78.50
56538;DHT22;42435;53.292;6.000;2023-05-07T09:15:58;15.50;78.00
56538;DHT22;42435;53.292;6.000;2023-05-07T09:18:25;15.50;77.40
56538;DHT22;42435;53.292;6.000;2023-05-07T09:20:51;15.60;77.40
56538;DHT22;42435;53.292;6.000;2023-05-07T09:23:16;15.60;77.20
56538;DHT22;42435;53.292;6.000;2023-05-07T09:25:42;15.60;77.20
56538;DHT22;42435;53.292;6.000;2023-05-07T09:28:11;15.50;76.90
56538;DHT22;42435;53.292;6.000;2023-05-07T09:30:36;15.50;76.70
56538;DHT22;42435;53.292;6.000;2023-05-07T09:33:03;15.40;76.90
56538;DHT22;42435;53.292;6.000;2023-05-07T09:35:30;15.40;77.00
56538;DHT22;42435;53.292;6.000;2023-05-07T09:38:00;15.50;76.90
56538;DHT22;42435;53.292;6.000;2023-05-07T09:40:28;15.60;76.70
56538;DHT22;42435;53.292;6.000;2023-05-07T09:42:54;15.70;76.90
56538;DHT22;42435;53.292;6.000;2023-05-07T09:45:26;15.80;76.60
56538;DHT22;42435;53.292;6.000;2023-05-07T09:47:57;15.80;76.40
56538;DHT22;42435;53.292;6.000;2023-05-07T09:50:29;15.80;76.10
56538;DHT22;42435;53.292;6.000;2023-05-07T09:52:56;15.90;76.10
56538;DHT22;42435;53.292;6.000;2023-05-07T09:55:22;16.00;76.20
56538;DHT22;42435;53.292;6.000;2023-05-07T09:57:53;16.10;76.10
56538;DHT22;42435;53.292;6.000;2023-05-07T10:00:20;16.20;75.90
56538;DHT22;42435;53.292;6.000;2023-05-07T10:02:48;16.20;76.00
56538;DHT22;42435;53.292;6.000;2023-05-07T10:05:15;16.30;76.10
56538;DHT22;42435;53.292;6.000;2023-05-07T10:07:42;16.50;75.70
56538;DHT22;42435;53.292;6.000;2023-05-07T10:10:12;16.60;75.20
56538;DHT22;42435;53.292;6.000;2023-05-07T10:12:42;16.80;74.70
56538;DHT22;42435;53.292;6.000;2023-05-07T10:15:11;16.90;75.00
56538;DHT22;42435;53.292;6.000;2023-05-07T10:17:41;16.90;74.90
56538;DHT22;42435;53.292;6.000;2023-05-07T10:20:07;17.10;74.50
56538;DHT22;42435;53.292;6.000;2023-05-07T10:22:45;17.20;73.90
56538;DHT22;42435;53.292;6.000;2023-05-07T10:25:21;17.20;73.60
56538;DHT22;42435;53.292;6.000;2023-05-07T10:27:49;17.30;73.60
56538;DHT22;42435;53.292;6.000;2023-05-07T10:30:36;17.40;73.40
56538;DHT22;42435;53.292;6.000;2023-05-07T10:33:05;17.60;73.10
56538;DHT22;42435;53.292;6.000;2023-05-07T10:35:42;17.80;72.50
56538;DHT22;42435;53.292;6.000;2023-05-07T10:38:09;18.00;72.00
56538;DHT22;42435;53.292;6.000;2023-05-07T10:40:35;18.20;71.60
56538;DHT22;42435;53.292;6.000;2023-05-07T10:43:06;18.40;71.10
56538;DHT22;42435;53.292;6.000;2023-05-07T10:45:32;18.50;70.80
56538;DHT22;42435;53.292;6.000;2023-05-07T10:48:15;18.60;70.00
56538;DHT22;42435;53.292;6.000;2023-05-07T10:50:43;18.70;69.60
56538;DHT22;42435;53.292;6.000;2023-05-07T10:55:49;19.00;70.00
56538;DHT22;42435;53.292;6.000;2023-05-07T11:00:47;19.30;69.40
56538;DHT22;42435;53.292;6.000;2023-05-07T11:03:13;19.40;68.80
56538;DHT22;42435;53.292;6.000;2023-05-07T11:05:41;19.60;68.10
56538;DHT22;42435;53.292;6.000;2023-05-07T11:08:10;19.70;67.80
56538;DHT22;42435;53.292;6.000;2023-05-07T11:10:55;19.90;67.50
56538;DHT22;42435;53.292;6.000;2023-05-07T11:13:41;20.00;67.70
56538;DHT22;42435;53.292;6.000;2023-05-07T11:16:24;20.10;66.80
56538;DHT22;42435;53.292;6.000;2023-05-07T11:18:51;20.00;66.60
56538;DHT22;42435;53.292;6.000;2023-05-07T11:21:38;20.00;66.50
56538;DHT22;42435;53.292;6.000;2023-05-07T11:24:10;20.00;65.90
56538;DHT22;42435;53.292;6.000;2023-05-07T11:26:48;20.00;66.10
56538;DHT22;42435;53.292;6.000;2023-05-07T11:29:19;20.10;66.20
56538;DHT22;42435;53.292;6.000;2023-05-07T11:31:51;20.10;66.40
56538;DHT22;42435;53.292;6.000;2023-05-07T11:34:24;20.30;66.40
56538;DHT22;42435;53.292;6.000;2023-05-07T11:36:51;20.50;65.70
56538;DHT22;42435;53.292;6.000;2023-05-07T11:39:28;20.50;65.60
56538;DHT22;42435;53.292;6.000;2023-05-07T11:41:54;20.50;65.50
56538;DHT22;42435;53.292;6.000;2023-05-07T11:44:20;20.70;65.20
56538;DHT22;42435;53.292;6.000;2023-05-07T11:46:51;20.70;64.80
56538;DHT22;42435;53.292;6.000;2023-05-07T11:49:18;20.70;65.40
56538;DHT22;42435;53.292;6.000;2023-05-07T11:51:47;20.80;65.00
56538;DHT22;42435;53.292;6.000;2023-05-07T11:54:15;20.90;64.50
56538;DHT22;42435;53.292;6.000;2023-05-07T11:56:41;21.00;64.30
56538;DHT22;42435;53.292;6.000;2023-05-07T11:59:08;20.90;64.00
56538;DHT22;42435;53.292;6.000;2023-05-07T12:01:35;20.90;64.10
56538;DHT22;42435;53.292;6.000;2023-05-07T12:04:03;20.90;63.80
56538;DHT22;42435;53.292;6.000;2023-05-07T12:06:30;20.90;64.60
56538;DHT22;42435;53.292;6.000;2023-05-07T12:08:56;21.00;64.10
56538;DHT22;42435;53.292;6.000;2023-05-07T12:11:23;21.00;64.00
56538;DHT22;42435;53.292;6.000;2023-05-07T12:13:51;21.00;63.80
56538;DHT22;42435;53.292;6.000;2023-05-07T12:16:20;21.00;64.00
56538;DHT22;42435;53.292;6.000;2023-05-07T12:18:47;21.10;63.50
56538;DHT22;42435;53.292;6.000;2023-05-07T12:21:13;21.20;63.20
56538;DHT22;42435;53.292;6.000;2023-05-07T12:23:40;21.30;62.90
56538;DHT22;42435;53.292;6.000;2023-05-07T12:26:11;21.20;63.10
56538;DHT22;42435;53.292;6.000;2023-05-07T12:28:37;21.20;63.10
56538;DHT22;42435;53.292;6.000;2023-05-07T12:31:10;21.20;63.40
56538;DHT22;42435;53.292;6.000;2023-05-07T12:33:35;21.20;62.70
56538;DHT22;42435;53.292;6.000;2023-05-07T12:36:06;21.30;62.70
56538;DHT22;42435;53.292;6.000;2023-05-07T12:38:36;21.40;63.50
56538;DHT22;42435;53.292;6.000;2023-05-07T12:41:06;21.50;62.70
56538;DHT22;42435;53.292;6.000;2023-05-07T12:43:32;21.70;63.60
56538;DHT22;42435;53.292;6.000;2023-05-07T12:46:01;21.90;62.60
56538;DHT22;42435;53.292;6.000;2023-05-07T12:48:28;22.00;62.10
56538;DHT22;42435;53.292;6.000;2023-05-07T12:50:55;22.40;61.50
56538;DHT22;42435;53.292;6.000;2023-05-07T12:53:23;22.50;60.80
56538;DHT22;42435;53.292;6.000;2023-05-07T12:55:52;22.60;60.80
56538;DHT22;42435;53.292;6.000;2023-05-07T13:00:50;22.80;59.30
56538;DHT22;42435;53.292;6.000;2023-05-07T13:03:23;22.60;59.00
56538;DHT22;42435;53.292;6.000;2023-05-07T13:05:54;22.70;59.30
56538;DHT22;42435;53.292;6.000;2023-05-07T13:08:34;22.80;60.20
56538;DHT22;42435;53.292;6.000;2023-05-07T13:11:02;22.90;59.60
56538;DHT22;42435;53.292;6.000;2023-05-07T13:13:33;23.10;59.50
56538;DHT22;42435;53.292;6.000;2023-05-07T13:16:03;23.20;58.40
56538;DHT22;42435;53.292;6.000;2023-05-07T13:18:31;23.10;58.00
56538;DHT22;42435;53.292;6.000;2023-05-07T13:20:57;23.00;57.80
56538;DHT22;42435;53.292;6.000;2023-05-07T13:23:23;22.90;58.60
56538;DHT22;42435;53.292;6.000;2023-05-07T13:25:50;22.90;59.10
56538;DHT22;42435;53.292;6.000;2023-05-07T13:28:16;22.80;58.60
56538;DHT22;42435;53.292;6.000;2023-05-07T13:30:43;22.80;58.90
56538;DHT22;42435;53.292;6.000;2023-05-07T13:33:13;22.70;59.70
56538;DHT22;42435;53.292;6.000;2023-05-07T13:35:39;22.60;59.60
56538;DHT22;42435;53.292;6.000;2023-05-07T13:38:11;22.60;59.30
56538;DHT22;42435;53.292;6.000;2023-05-07T13:40:40;22.50;59.10
56538;DHT22;42435;53.292;6.000;2023-05-07T13:43:07;22.50;59.70
56538;DHT22;42435;53.292;6.000;2023-05-07T13:45:33;22.40;59.70
56538;DHT22;42435;53.292;6.000;2023-05-07T13:48:00;22.30;59.80
56538;DHT22;42435;53.292;6.000;2023-05-07T13:50:27;22.40;59.80
56538;DHT22;42435;53.292;6.000;2023-05-07T13:52:54;22.50;59.70
56538;DHT22;42435;53.292;6.000;2023-05-07T13:55:21;22.70;59.40
56538;DHT22;42435;53.292;6.000;2023-05-07T13:57:56;22.80;59.70
56538;DHT22;42435;53.292;6.000;2023-05-07T14:00:26;22.90;59.10
56538;DHT22;42435;53.292;6.000;2023-05-07T14:02:54;22.90;58.90
56538;DHT22;42435;53.292;6.000;2023-05-07T14:05:23;22.90;59.40
56538;DHT22;42435;53.292;6.000;2023-05-07T14:07:53;22.90;59.30
56538;DHT22;42435;53.292;6.000;2023-05-07T14:10:19;22.90;58.70
56538;DHT22;42435;53.292;6.000;2023-05-07T14:12:46;22.90;59.10
56538;DHT22;42435;53.292;6.000;2023-05-07T14:15:12;22.90;59.10
56538;DHT22;42435;53.292;6.000;2023-05-07T14:17:37;22.90;59.40
56538;DHT22;42435;53.292;6.000;2023-05-07T14:20:03;22.90;60.10
56538;DHT22;42435;53.292;6.000;2023-05-07T14:22:29;23.00;59.40
56538;DHT22;42435;53.292;6.000;2023-05-07T14:24:57;23.00;59.00
56538;DHT22;42435;53.292;6.000;2023-05-07T14:27:23;23.00;59.30
56538;DHT22;42435;53.292;6.000;2023-05-07T14:29:49;23.00;58.90
56538;DHT22;42435;53.292;6.000;2023-05-07T14:32:17;22.90;58.70
56538;DHT22;42435;53.292;6.000;2023-05-07T14:34:45;22.90;59.10
56538;DHT22;42435;53.292;6.000;2023-05-07T14:37:11;22.90;59.70
56538;DHT22;42435;53.292;6.000;2023-05-07T14:39:36;22.90;59.10
56538;DHT22;42435;53.292;6.000;2023-05-07T14:42:02;22.90;58.30
56538;DHT22;42435;53.292;6.000;2023-05-07T14:44:29;23.00;58.40
56538;DHT22;42435;53.292;6.000;2023-05-07T14:46:56;23.10;58.50
56538;DHT22;42435;53.292;6.000;2023-05-07T14:49:22;23.10;58.40
56538;DHT22;42435;53.292;6.000;2023-05-07T14:51:49;23.00;58.40
56538;DHT22;42435;53.292;6.000;2023-05-07T14:54:15;22.90;58.30
56538;DHT22;42435;53.292;6.000;2023-05-07T14:56:41;22.90;59.00
56538;DHT22;42435;53.292;6.000;2023-05-07T14:59:08;22.90;58.60
56538;DHT22;42435;53.292;6.000;2023-05-07T15:01:35;22.80;58.50
56538;DHT22;42435;53.292;6.000;2023-05-07T15:04:02;22.70;58.60
56538;DHT22;42435;53.292;6.000;2023-05-07T15:06:28;22.80;59.10
56538;DHT22;42435;53.292;6.000;2023-05-07T15:08:54;22.90;58.90
56538;DHT22;42435;53.292;6.000;2023-05-07T15:11:20;22.90;58.40
56538;DHT22;42435;53.292;6.000;2023-05-07T15:13:49;23.00;58.40
56538;DHT22;42435;53.292;6.000;2023-05-07T15:16:15;22.90;57.60
56538;DHT22;42435;53.292;6.000;2023-05-07T15:18:40;22.80;57.70
56538;DHT22;42435;53.292;6.000;2023-05-07T15:21:06;22.70;58.10
56538;DHT22;42435;53.292;6.000;2023-05-07T15:23:32;22.60;58.60
56538;DHT22;42435;53.292;6.000;2023-05-07T15:25:57;22.40;58.80
56538;DHT22;42435;53.292;6.000;2023-05-07T15:28:25;22.30;58.90
56538;DHT22;42435;53.292;6.000;2023-05-07T15:30:52;22.20;58.90
56538;DHT22;42435;53.292;6.000;2023-05-07T15:33:17;22.00;59.10
56538;DHT22;42435;53.292;6.000;2023-05-07T15:35:43;21.80;59.70
56538;DHT22;42435;53.292;6.000;2023-05-07T15:38:09;21.60;60.20